Observations for ST. NAZAIRE MONTOIR, France (LFRZ)

LFRZ 242030Z AUTO 26010KT 230V290 9999 OVC021 13/09 Q1018 BECMG BKN010  
LFRZ 242000Z AUTO 26010KT 9999 OVC022 13/09 Q1017 NOSIG 
LFRZ 241930Z AUTO 27009KT 240V300 9999 OVC023 13/09 Q1017 NOSIG 
LFRZ 241900Z AUTO 27009KT 9999 BKN023 13/09 Q1017 NOSIG 
LFRZ 241830Z AUTO 27008KT 9999 BKN022 13/09 Q1017 NOSIG 
LFRZ 241800Z AUTO 26010KT 9999 BKN025 14/09 Q1017 NOSIG 
LFRZ 241730Z AUTO 25010KT 230V290 CAVOK 15/09 Q1017 NOSIG   
LFRZ 241700Z AUTO 23011KT 200V270 CAVOK 15/09 Q1017 NOSIG   
LFRZ 241630Z AUTO 26007KT 210V310 CAVOK 16/09 Q1017 NOSIG   
LFRZ 241600Z AUTO 27008KT 230V320 CAVOK 16/09 Q1018 NOSIG   
LFRZ 241530Z AUTO 27010KT 230V300 CAVOK 16/09 Q1018 NOSIG   
LFRZ 241500Z AUTO 25009KT 220V310 9999 FEW028 16/09 Q1018 NOSIG 
LFRZ 241430Z AUTO 27010KT 220V310 9999 BKN028 16/09 Q1019 NOSIG 
LFRZ 241400Z AUTO 25010KT 9999 FEW029 16/10 Q1019 NOSIG 
LFRZ 241330Z AUTO 25009KT 200V310 CAVOK 16/09 Q1019 NOSIG   
LFRZ 241300Z AUTO 25008KT 200V290 CAVOK 16/09 Q1019 NOSIG   
LFRZ 241230Z AUTO 22010KT 190V290 9999 FEW029 16/09 Q1019 NOSIG 
LFRZ 241200Z AUTO 25007KT 220V290 9999 BKN029 16/10 Q1020 NOSIG 
LFRZ 241130Z AUTO 29007KT 240V330 9999 BKN029 16/09 Q1020 NOSIG 
LFRZ 241100Z AUTO 29007KT 240V340 9999 SCT028 16/09 Q1021 NOSIG 
LFRZ 241030Z AUTO 30005KT 260V340 9999 SCT030 15/09 Q1021 NOSIG 
LFRZ 241000Z AUTO 30005KT 250V050 CAVOK 15/09 Q1021 NOSIG   
LFRZ 240930Z AUTO 30005KT 250V030 CAVOK 15/08 Q1021 NOSIG   
LFRZ 240900Z AUTO 30005KT 250V360 CAVOK 14/08 Q1021 NOSIG   
LFRZ 240830Z AUTO 30004KT 220V030 CAVOK 13/08 Q1021 NOSIG   
LFRZ 240800Z AUTO VRB02KT CAVOK 13/09 Q1021 NOSIG   
LFRZ 240730Z AUTO VRB02KT CAVOK 12/08 Q1021 NOSIG   
LFRZ 240700Z AUTO 34003KT 320V020 9999 FEW012 10/08 Q1021 NOSIG 
LFRZ 240630Z AUTO 34003KT 330V060 CAVOK 09/08 Q1021 NOSIG   
LFRZ 240600Z AUTO VRB03KT 9999 FEW004 08/08 Q1021 NOSIG 
LFRZ 240530Z AUTO 34004KT 9999 FEW003 08/07 Q1020 NOSIG 
LFRZ 240500Z AUTO VRB03KT CAVOK 08/07 Q1020 NOSIG   
LFRZ 240430Z AUTO VRB02KT 9999 FEW004 07/06 Q1020 NOSIG 
LFRZ 240400Z AUTO VRB01KT CAVOK 08/06 Q1020 NOSIG   
LFRZ 240330Z AUTO 33003KT CAVOK 08/07 Q1020 NOSIG   
LFRZ 240300Z AUTO VRB03KT CAVOK 08/07 Q1021 NOSIG   
LFRZ 240230Z AUTO 34003KT CAVOK 08/07 Q1021 NOSIG   
LFRZ 240200Z AUTO 35003KT CAVOK 09/07 Q1021 NOSIG   
LFRZ 240130Z AUTO VRB03KT CAVOK 09/07 Q1021 NOSIG   
LFRZ 240100Z AUTO 33003KT 9999 NCD 10/07 Q1021 NOSIG
LFRZ 240000Z AUTO 30005KT CAVOK 11/08 Q1021 NOSIG   
LFRZ 232330Z AUTO 30006KT CAVOK 11/08 Q1021 NOSIG   
LFRZ 232300Z AUTO 30006KT CAVOK 11/08 Q1021 NOSIG   
LFRZ 232230Z AUTO 30006KT CAVOK 11/09 Q1021 NOSIG   
LFRZ 232200Z AUTO 29005KT CAVOK 11/09 Q1021 NOSIG   
LFRZ 232130Z AUTO 28005KT CAVOK 12/09 Q1021 NOSIG   
LFRZ 232100Z AUTO 28007KT CAVOK 12/09 Q1021 NOSIG   
LFRZ 232030Z AUTO 28007KT CAVOK 12/09 Q1021 NOSIG   
LFRZ 232000Z AUTO 28007KT CAVOK 13/08 Q1021 NOSIG